WEATHER DATA

YESTERDAY
Time Temp. Dewp. Hum. Wind dir Wind speed Wind gust Bar. 1h Prec. 24h Prec.
00:08 15.1 5 51 315 1.1 2.5 1023.9 0.0000 0.0000
00:19 14.9 4.9 51 315 1.7 2.8 1023.9 0.0000 0.0000
00:29 14.7 5 52 239 1.1 2.5 1023.8 0.0000 0.0000
00:39 14.5 4.8 52 242 1.7 2.8 1023.8 0.0000 0.0000
00:49 14.4 5 53 250 1.7 2.8 1023.8 0.0000 0.0000
00:59 14.2 4.8 53 261 1.7 2.8 1023.7 0.0000 0.0000
01:09 14 4.6 53 249 1.1 2.5 1023.6 0.0000 0.0000
01:19 13.9 4.5 53 242 1.1 2.8 1023.4 0.0000 0.0000
01:30 13.8 4.4 53 242 1.7 2.8 1023.3 0.0000 0.0000
01:39 13.6 4.5 54 252 1.1 2.5 1023.2 0.0000 0.0000
01:49 13.4 4.3 54 249 1.7 2.8 1023.2 0.0000 0.0000
01:59 13.2 4.4 55 237 1.7 3.3 1023.2 0.0000 0.0000
02:10 12.9 4.3 56 243 1.9 2.8 1023.1 0.0000 0.0000
02:20 12.7 4.4 57 245 1.9 3.3 1023 0.0000 0.0000
02:29 12.5 4.5 58 237 1.7 2.8 1022.9 0.0000 0.0000
02:40 12.2 4.2 58 246 1.9 2.8 1022.9 0.0000 0.0000
02:50 12 4.2 59 240 1.7 2.8 1022.8 0.0000 0.0000
03:00 11.8 4.3 60 237 1.9 2.8 1022.8 0.0000 0.0000
03:10 11.6 4.1 60 235 1.7 3.3 1022.7 0.0000 0.0000
03:20 11.4 4.2 61 237 1.9 3.6 1022.7 0.0000 0.0000
03:30 11.2 4 61 236 1.9 3.3 1022.7 0.0000 0.0000
03:40 11.2 4 61 244 1.7 3.3 1022.6 0.0000 0.0000
03:51 11.1 4.1 62 236 1.7 2.8 1022.5 0.0000 0.0000
04:01 11 4 62 234 1.7 2.8 1022.5 0.0000 0.0000
04:10 11 4 62 259 1.7 2.8 1022.5 0.0000 0.0000
04:20 10.9 3.9 62 238 1.7 3.3 1022.4 0.0000 0.0000
04:31 10.8 3.8 62 286 1.1 2.5 1022.3 0.0000 0.0000
04:41 10.7 3.7 62 237 1.9 2.8 1022.3 0.0000 0.0000
04:51 10.6 3.6 62 237 1.7 2.8 1022.2 0.0000 0.0000
05:01 10.5 3.8 63 243 1.7 2.8 1022.1 0.0000 0.0000
05:11 10.4 3.7 63 247 1.7 2.8 1022 0.0000 0.0000
05:21 10.5 3.8 63 299 1.1 2.8 1021.9 0.0000 0.0000
05:31 10.4 3.4 62 250 1.1 2.5 1021.8 0.0000 0.0000
05:42 10.4 3.4 62 248 1.7 2.8 1021.8 0.0000 0.0000
05:51 10.3 3.3 62 240 1.7 2.8 1021.8 0.0000 0.0000
06:01 10.2 3.3 62 237 1.7 2.8 1021.8 0.0000 0.0000
06:12 10.1 3.2 62 236 1.9 4.2 1021.8 0.0000 0.0000
06:22 9.8 3.1 63 241 1.7 2.8 1021.9 0.0000 0.0000
06:32 9.6 3.1 64 242 1.7 2.8 1021.9 0.0000 0.0000
06:41 9.6 3.1 64 231 1.7 2.8 1021.9 0.0000 0.0000
06:52 9.5 3.3 65 235 1.7 2.8 1021.9 0.0000 0.0000
07:02 9.5 3.3 65 240 1.7 2.8 1021.9 0.0000 0.0000
07:12 9.6 3.4 65 218 1.7 2.5 1021.9 0.0000 0.0000
07:22 9.7 3.4 65 153 1.1 2.5 1021.9 0.0000 0.0000
07:32 9.7 3.2 64 90 1.1 2.8 1021.9 0.0000 0.0000
07:42 9.8 3.3 64 194 1.1 1.9 1021.9 0.0000 0.0000
07:52 9.9 3.4 64 202 0.8 2.5 1021.9 0.0000 0.0000
08:03 10.1 3.8 65 104 1.1 2.5 1021.8 0.0000 0.0000
08:13 10.2 3.9 65 152 0.8 1.9 1021.8 0.0000 0.0000
08:22 10.4 4.1 65 149 0.3 1.1 1021.8 0.0000 0.0000
08:33 10.5 4 64 174 0.8 1.9 1021.7 0.0000 0.0000
08:43 10.7 4.2 64 163 0.8 1.9 1021.8 0.0000 0.0000
08:47 10.8 4.3 64 210 1.7 5.8 1021.7 0.0000 0.0000
08:57 11 4.5 64 222 3.3 6.7 1021.7 0.0000 0.0000
09:07 11.2 4.7 64 207 4.4 9.4 1021.7 0.0000 0.0000
09:17 11.4 4.8 64 181 4.2 7.8 1021.7 0.0000 0.0000
09:27 11.6 5 64 167 4.2 8.9 1021.7 0.0000 0.0000
09:37 11.9 5.3 64 141 5 11.1 1021.7 0.0000 0.0000
09:48 12.2 5.4 63 117 4.4 9.4 1021.6 0.0000 0.0000
09:57 12.4 5.3 62 100 5.8 12.8 1021.5 0.0000 0.0000
10:07 12.7 5.6 62 101 5.3 11.1 1021.2 0.0000 0.0000
10:18 12.9 5.6 61 88 6.1 11.4 1021.1 0.0000 0.0000
10:28 13.3 5.9 61 135 6.1 12.2 1021 0.0000 0.0000
10:38 13.5 5.9 60 159 5.8 12.2 1021 0.0000 0.0000
10:48 14 6.1 59 75 8.3 18.1 1020.9 0.0000 0.0000
11:05 14.7 6 56 96 8.6 18.3 1020.8 0.0000 0.0000
11:15 15 6 55 100 7.5 15.3 1020.7 0.0000 0.0000
11:25 15.3 6.3 55 242 3.6 7.8 1020.6 0.0000 0.0000
11:44 16 6.2 52 119 8.9 20 1020.4 0.0000 0.0000
11:54 16.2 6.1 51 161 6.7 13.9 1020.4 0.0000 0.0000
12:05 16.5 6.3 51 163 5.3 13.9 1020.2 0.0000 0.0000
12:15 16.6 6.1 50 156 6.1 11.9 1020.2 0.0000 0.0000
12:16 16.7 6.2 50 144 6.9 16.1 1020.1 0.0000 0.0000
12:26 16.8 6.3 50 171 6.9 14.7 1020.1 0.0000 0.0000
12:36 17 5.9 48 118 5.8 14.4 1020 0.0000 0.0000
12:46 17.1 6 48 166 5.8 11.4 1019.8 0.0000 0.0000
12:57 17.2 6.4 49 212 5 13.9 1019.8 0.0000 0.0000
13:11 17.4 6.6 49 108 5.3 13.9 1019.6 0.0000 0.0000
13:21 17.6 6.2 47 167 5.3 14.4 1019.5 0.0000 0.0000
13:32 17.8 6 46 236 4.4 9.4 1019.4 0.0000 0.0000
13:41 18 5.9 45 218 5.3 16.9 1019.1 0.0000 0.0000
13:48 18.2 6.1 45 191 6.1 11.9 1019.1 0.0000 0.0000
13:58 18.4 5.9 44 220 5 8.6 1019 0.0000 0.0000
14:08 18.6 5.8 43 213 5.3 11.1 1018.9 0.0000 0.0000
14:18 18.8 6 43 187 4.4 10.6 1018.8 0.0000 0.0000
14:35 19 6.2 43 163 6.7 18.3 1018.6 0.0000 0.0000
14:45 19.2 6 42 225 4.2 7.5 1018.4 0.0000 0.0000
14:50 19.3 6.1 42 227 5.3 10.6 1018.3 0.0000 0.0000
15:00 19.3 6.1 42 233 5.8 8.3 1018.2 0.0000 0.0000
15:10 19.4 6.2 42 222 6.7 8.3 1018 0.0000 0.0000
15:20 19.5 5.9 41 232 6.7 8.9 1017.9 0.0000 0.0000
15:30 19.6 6 41 221 3.6 7.5 1017.7 0.0000 0.0000
15:41 19.8 6.2 41 230 5 10.3 1017.6 0.0000 0.0000
15:52 20 6.4 41 227 5 6.9 1017.4 0.0000 0.0000
16:02 20.1 6.5 41 231 5 7.8 1017.4 0.0000 0.0000
16:12 20.2 6.5 41 229 4.4 10.3 1017.2 0.0000 0.0000
16:22 20.3 6.6 41 229 5.3 9.4 1017.2 0.0000 0.0000
16:32 20.5 6.5 40 241 6.1 11.1 1017.1 0.0000 0.0000
16:42 20.5 6.5 40 236 5.8 9.4 1016.9 0.0000 0.0000
16:52 20.6 6.5 40 239 5 8.6 1016.9 0.0000 0.0000
17:04 20.7 6.6 40 234 5 14.4 1016.7 0.0000 0.0000
17:15 20.7 6.6 40 222 5 10.6 1016.7 0.0000 0.0000
17:25 20.8 6.4 39 172 6.1 11.9 1016.6 0.0000 0.0000
17:35 20.8 6.4 39 225 5.3 13.1 1016.5 0.0000 0.0000
17:45 20.9 6.4 39 218 5.3 12.2 1016.4 0.0000 0.0000
17:55 20.9 6.4 39 152 9.4 15.3 1016.3 0.0000 0.0000
18:05 20.9 6.8 40 149 6.1 11.9 1016.2 0.0000 0.0000
18:15 20.9 6.8 40 93 8.9 14.4 1016.1 0.0000 0.0000
18:26 20.8 6.7 40 103 6.9 14.7 1016 0.0000 0.0000
18:35 20.8 6.7 40 74 7.5 12.2 1015.9 0.0000 0.0000
18:45 20.7 6.6 40 232 5 10.6 1015.9 0.0000 0.0000
18:55 20.7 6.6 40 79 1.7 3.6 1015.8 0.0000 0.0000
19:06 20.6 6.5 40 98 1.1 4.2 1015.7 0.0000 0.0000
19:16 20.5 6.8 41 77 1.9 5 1015.6 0.0000 0.0000
19:26 20.4 6.7 41 95 2.5 4.4 1015.6 0.0000 0.0000
19:36 20.2 6.9 42 90 1.7 4.2 1015.6 0.0000 0.0000
19:46 20 6.7 42 70 1.9 4.2 1015.5 0.0000 0.0000
19:56 19.8 6.5 42 90 1.7 3.6 1015.5 0.0000 0.0000
20:06 19.6 6.7 43 102 1.1 2.5 1015.5 0.0000 0.0000
20:17 19.3 6.4 43 132 1.1 2.8 1015.5 0.0000 0.0000
20:27 19 6.5 44 167 0.8 2.5 1015.5 0.0000 0.0000
20:36 18.7 6.2 44 193 0.8 1.9 1015.4 0.0000 0.0000
20:47 18.4 6.3 45 221 0.8 1.1 1015.5 0.0000 0.0000
20:57 18.2 6.1 45 221 1.1 1.9 1015.5 0.0000 0.0000
21:07 17.9 6.1 46 291 0.8 1.9 1015.6 0.0000 0.0000
21:17 17.7 5.9 46 270 1.1 1.9 1015.6 0.0000 0.0000
21:28 17.6 5.9 46 254 1.1 2.5 1015.6 0.0000 0.0000
21:37 17.5 6.1 47 238 1.1 1.9 1015.5 0.0000 0.0000
21:47 17.4 6 47 228 1.1 2.5 1015.5 0.0000 0.0000
21:57 17.2 5.8 47 66 1.1 2.8 1015.5 0.0000 0.0000
22:08 16.9 5.5 47 81 1.1 2.5 1015.5 0.0000 0.0000
22:18 16.7 5.3 47 90 1.1 2.5 1015.4 0.0000 0.0000
22:28 16.5 5.2 47 72 1.1 3.3 1015.4 0.0000 0.0000
22:38 16.3 5.3 48 120 1.1 3.6 1015.4 0.0000 0.0000
22:48 16.2 5.2 48 73 1.7 3.3 1015.3 0.0000 0.0000
22:58 16 5 48 55 1.7 3.6 1015.3 0.0000 0.0000
23:08 15.8 4.8 48 75 1.7 4.2 1015.2 0.0000 0.0000
23:19 15.6 4.6 48 76 1.7 3.6 1015.2 0.0000 0.0000
23:29 15.5 4.8 49 90 1.7 3.6 1015.2 0.0000 0.0000
23:38 15.3 4.7 49 90 1.7 3.3 1015.1 0.0000 0.0000
23:48 15.2 4.6 49 62 1.7 2.8 1015.2 0.0000 0.0000

DAY STATISTIC

2019-04-21
TEMPERATURE
AVERAGE
15.3
HIGH
20.9
17:45
LOW
9.5
06:52
PRESSURE
AVERAGE
1019.5
HIGH
1023.9
00:08
LOW
1015.1
23:38
DEWPOINT
AVERAGE
5.2
HIGH
6.9
19:36
LOW
3.1
06:22
HUMIDITY
AVERAGE
52
HIGH
65
06:52
LOW
39
17:25
WIND SPEED
AVERAGE
3.2
HIGH
9.4
17:55
WIND GUST
AVERAGE
6.6
HIGH
20.0
11:44
WIND DIRECTION
PREVAILING
SW
44.7%
N
0.0
NE
2.1
E
19.9
SE
9.9
S
12.8
SW
44.7
W
8.5
NW
2.1
PRECIPITATION
RAIN HOUR
0.0
RAIN DAY
0.0
TEMPERATURE (°C)
LOW
9.5
HIGH
20.9
AVERAGE
15.3
PRESSURE (hpa)
LOW
1015.1
HIGH
1023.9
AVERAGE
1019.5
DEVICE